sensor_id;sensor_type;location;lat;lon;timestamp;pressure;altitude;pressure_sealevel;temperature;humidity
73297;BME280;61524;50.938;11.396;2022-11-15T00:01:34;98809.78;;;6.81;94.46
73297;BME280;61524;50.938;11.396;2022-11-15T00:04:00;98814.53;;;6.79;94.17
73297;BME280;61524;50.938;11.396;2022-11-15T00:06:26;98816.03;;;6.98;93.69
73297;BME280;61524;50.938;11.396;2022-11-15T00:08:51;98825.88;;;6.98;93.40
73297;BME280;61524;50.938;11.396;2022-11-15T00:11:17;98816.84;;;6.87;93.67
73297;BME280;61524;50.938;11.396;2022-11-15T00:13:42;98821.09;;;6.88;93.95
73297;BME280;61524;50.938;11.396;2022-11-15T00:16:08;98821.84;;;6.95;93.88
73297;BME280;61524;50.938;11.396;2022-11-15T00:18:34;98818.00;;;6.91;94.16
73297;BME280;61524;50.938;11.396;2022-11-15T00:21:05;98821.16;;;7.12;93.60
73297;BME280;61524;50.938;11.396;2022-11-15T00:23:32;98833.84;;;6.98;93.78
73297;BME280;61524;50.938;11.396;2022-11-15T00:25:58;98819.50;;;6.99;94.00
73297;BME280;61524;50.938;11.396;2022-11-15T00:28:24;98835.25;;;7.00;93.90
73297;BME280;61524;50.938;11.396;2022-11-15T00:30:50;98846.44;;;7.02;93.92
73297;BME280;61524;50.938;11.396;2022-11-15T00:33:15;98837.28;;;6.98;94.38
73297;BME280;61524;50.938;11.396;2022-11-15T00:35:41;98834.84;;;6.85;94.19
73297;BME280;61524;50.938;11.396;2022-11-15T00:38:06;98837.28;;;6.87;94.65
73297;BME280;61524;50.938;11.396;2022-11-15T00:40:32;98836.88;;;6.71;94.17
73297;BME280;61524;50.938;11.396;2022-11-15T00:42:58;98839.88;;;6.63;94.84
73297;BME280;61524;50.938;11.396;2022-11-15T00:45:24;98846.22;;;6.62;95.09
73297;BME280;61524;50.938;11.396;2022-11-15T00:47:50;98842.25;;;6.53;94.96
73297;BME280;61524;50.938;11.396;2022-11-15T00:50:15;98836.56;;;6.19;95.61
73297;BME280;61524;50.938;11.396;2022-11-15T00:52:41;98832.88;;;6.02;96.63
73297;BME280;61524;50.938;11.396;2022-11-15T00:55:07;98840.84;;;6.02;97.07
73297;BME280;61524;50.938;11.396;2022-11-15T00:57:33;98835.75;;;6.00;97.52
73297;BME280;61524;50.938;11.396;2022-11-15T00:59:58;98820.91;;;5.99;97.18
73297;BME280;61524;50.938;11.396;2022-11-15T01:02:24;98824.72;;;6.03;97.53
73297;BME280;61524;50.938;11.396;2022-11-15T01:04:49;98838.88;;;5.97;97.80
73297;BME280;61524;50.938;11.396;2022-11-15T01:07:15;98833.78;;;5.96;97.47
73297;BME280;61524;50.938;11.396;2022-11-15T01:09:40;98822.41;;;6.07;97.83
73297;BME280;61524;50.938;11.396;2022-11-15T01:12:06;98821.25;;;6.21;97.77
73297;BME280;61524;50.938;11.396;2022-11-15T01:14:31;98817.00;;;6.32;96.99
73297;BME280;61524;50.938;11.396;2022-11-15T01:16:57;98816.78;;;6.34;97.22
73297;BME280;61524;50.938;11.396;2022-11-15T01:19:22;98813.72;;;6.48;97.00
73297;BME280;61524;50.938;11.396;2022-11-15T01:21:51;98809.69;;;6.46;96.14
73297;BME280;61524;50.938;11.396;2022-11-15T01:24:16;98811.59;;;6.57;95.73
73297;BME280;61524;50.938;11.396;2022-11-15T01:26:42;98810.78;;;6.56;95.84
73297;BME280;61524;50.938;11.396;2022-11-15T01:29:07;98805.91;;;6.53;96.11
73297;BME280;61524;50.938;11.396;2022-11-15T01:31:33;98801.84;;;6.51;96.06
73297;BME280;61524;50.938;11.396;2022-11-15T01:33:58;98806.25;;;6.27;96.57
73297;BME280;61524;50.938;11.396;2022-11-15T01:36:24;98806.03;;;6.28;96.33
73297;BME280;61524;50.938;11.396;2022-11-15T01:38:57;98802.97;;;6.13;96.93
73297;BME280;61524;50.938;11.396;2022-11-15T01:41:24;98793.75;;;6.16;97.41
73297;BME280;61524;50.938;11.396;2022-11-15T01:43:52;98792.50;;;6.18;96.63
73297;BME280;61524;50.938;11.396;2022-11-15T01:48:47;98781.53;;;6.15;96.88
73297;BME280;61524;50.938;11.396;2022-11-15T01:51:16;98794.81;;;5.96;97.25
73297;BME280;61524;50.938;11.396;2022-11-15T01:53:45;98783.25;;;6.09;97.66
73297;BME280;61524;50.938;11.396;2022-11-15T01:56:17;98785.38;;;6.00;97.04
73297;BME280;61524;50.938;11.396;2022-11-15T01:58:43;98788.94;;;5.94;97.35
73297;BME280;61524;50.938;11.396;2022-11-15T02:01:11;98790.38;;;5.90;98.03
73297;BME280;61524;50.938;11.396;2022-11-15T02:06:12;98789.56;;;5.90;98.21
73297;BME280;61524;50.938;11.396;2022-11-15T02:08:37;98787.72;;;5.90;98.34
73297;BME280;61524;50.938;11.396;2022-11-15T02:11:07;98771.38;;;5.75;98.60
73297;BME280;61524;50.938;11.396;2022-11-15T02:13:32;98780.13;;;5.75;98.27
73297;BME280;61524;50.938;11.396;2022-11-15T02:16:25;98780.16;;;5.57;98.99
73297;BME280;61524;50.938;11.396;2022-11-15T02:19:40;98781.69;;;5.65;99.36
73297;BME280;61524;50.938;11.396;2022-11-15T02:32:32;98764.16;;;6.00;97.53
73297;BME280;61524;50.938;11.396;2022-11-15T02:37:58;98763.84;;;6.39;97.03
73297;BME280;61524;50.938;11.396;2022-11-15T02:40:41;98763.78;;;6.15;97.07
73297;BME280;61524;50.938;11.396;2022-11-15T02:43:14;98758.09;;;6.12;97.86
73297;BME280;61524;50.938;11.396;2022-11-15T02:46:07;98759.97;;;6.53;96.82
73297;BME280;61524;50.938;11.396;2022-11-15T02:48:35;98756.44;;;6.71;96.16
73297;BME280;61524;50.938;11.396;2022-11-15T02:51:02;98765.81;;;6.73;95.22
73297;BME280;61524;50.938;11.396;2022-11-15T02:53:28;98754.94;;;6.75;95.37
73297;BME280;61524;50.938;11.396;2022-11-15T02:55:54;98767.06;;;6.71;95.08
73297;BME280;61524;50.938;11.396;2022-11-15T03:04:39;98750.09;;;6.72;95.12
73297;BME280;61524;50.938;11.396;2022-11-15T03:06:53;98750.53;;;6.57;95.49
73297;BME280;61524;50.938;11.396;2022-11-15T03:11:55;98745.31;;;6.09;96.08
73297;BME280;61524;50.938;11.396;2022-11-15T03:14:32;98743.53;;;6.02;96.34
73297;BME280;61524;50.938;11.396;2022-11-15T03:17:23;98735.72;;;5.89;97.18
73297;BME280;61524;50.938;11.396;2022-11-15T03:19:53;98736.22;;;6.16;97.42
73297;BME280;61524;50.938;11.396;2022-11-15T03:22:22;98734.81;;;6.55;96.36
73297;BME280;61524;50.938;11.396;2022-11-15T03:24:59;98731.84;;;6.75;94.70
73297;BME280;61524;50.938;11.396;2022-11-15T03:27:30;98723.44;;;6.78;94.68
73297;BME280;61524;50.938;11.396;2022-11-15T03:30:00;98738.78;;;6.88;94.38
73297;BME280;61524;50.938;11.396;2022-11-15T03:32:30;98723.91;;;6.99;93.69
73297;BME280;61524;50.938;11.396;2022-11-15T03:35:08;98731.97;;;6.92;93.19
73297;BME280;61524;50.938;11.396;2022-11-15T03:37:48;98740.06;;;6.97;93.58
73297;BME280;61524;50.938;11.396;2022-11-15T03:40:16;98738.09;;;6.93;93.48
73297;BME280;61524;50.938;11.396;2022-11-15T03:42:47;98729.69;;;6.84;93.56
73297;BME280;61524;50.938;11.396;2022-11-15T03:45:23;98745.50;;;6.91;93.67
73297;BME280;61524;50.938;11.396;2022-11-15T03:48:01;98731.88;;;6.87;93.78
73297;BME280;61524;50.938;11.396;2022-11-15T03:50:29;98731.75;;;6.82;94.13
73297;BME280;61524;50.938;11.396;2022-11-15T03:52:55;98730.00;;;6.88;93.50
73297;BME280;61524;50.938;11.396;2022-11-15T03:55:21;98716.84;;;6.81;93.67
73297;BME280;61524;50.938;11.396;2022-11-15T03:57:49;98721.72;;;6.84;93.95
73297;BME280;61524;50.938;11.396;2022-11-15T04:00:16;98721.47;;;6.74;93.60
73297;BME280;61524;50.938;11.396;2022-11-15T04:02:41;98726.56;;;6.75;94.06
73297;BME280;61524;50.938;11.396;2022-11-15T04:05:07;98707.28;;;6.68;93.57
73297;BME280;61524;50.938;11.396;2022-11-15T04:07:33;98712.78;;;6.67;93.85
73297;BME280;61524;50.938;11.396;2022-11-15T04:09:58;98722.03;;;6.76;93.88
73297;BME280;61524;50.938;11.396;2022-11-15T04:12:34;98727.25;;;6.82;93.21
73297;BME280;61524;50.938;11.396;2022-11-15T04:15:04;98721.25;;;6.87;93.13
73297;BME280;61524;50.938;11.396;2022-11-15T04:17:37;98717.09;;;6.91;93.09
73297;BME280;61524;50.938;11.396;2022-11-15T04:20:09;98717.78;;;6.75;92.95
73297;BME280;61524;50.938;11.396;2022-11-15T04:22:55;98715.31;;;6.62;93.85
73297;BME280;61524;50.938;11.396;2022-11-15T04:25:40;98698.50;;;6.68;94.04
73297;BME280;61524;50.938;11.396;2022-11-15T04:28:06;98700.44;;;6.72;93.91
73297;BME280;61524;50.938;11.396;2022-11-15T04:30:32;98694.44;;;6.77;93.61
73297;BME280;61524;50.938;11.396;2022-11-15T04:32:57;98706.72;;;6.90;93.14
73297;BME280;61524;50.938;11.396;2022-11-15T04:35:23;98700.72;;;6.94;92.69
73297;BME280;61524;50.938;11.396;2022-11-15T04:37:48;98695.97;;;6.73;93.16
73297;BME280;61524;50.938;11.396;2022-11-15T04:40:14;98707.28;;;6.68;93.58
73297;BME280;61524;50.938;11.396;2022-11-15T04:42:42;98701.25;;;6.61;93.56
73297;BME280;61524;50.938;11.396;2022-11-15T04:45:09;98683.25;;;6.63;94.09
73297;BME280;61524;50.938;11.396;2022-11-15T04:47:34;98690.19;;;6.64;93.64
73297;BME280;61524;50.938;11.396;2022-11-15T04:50:00;98694.44;;;6.53;94.29
73297;BME280;61524;50.938;11.396;2022-11-15T04:52:25;98672.03;;;6.49;94.21
73297;BME280;61524;50.938;11.396;2022-11-15T04:54:51;98678.88;;;6.57;93.89
73297;BME280;61524;50.938;11.396;2022-11-15T04:57:16;98672.84;;;6.62;94.17
73297;BME280;61524;50.938;11.396;2022-11-15T04:59:42;98680.25;;;6.60;93.73
73297;BME280;61524;50.938;11.396;2022-11-15T05:02:07;98682.66;;;6.61;93.86
73297;BME280;61524;50.938;11.396;2022-11-15T05:04:32;98666.06;;;6.54;93.63
73297;BME280;61524;50.938;11.396;2022-11-15T05:06:58;98678.66;;;6.58;93.84
73297;BME280;61524;50.938;11.396;2022-11-15T05:09:23;98673.44;;;6.64;94.02
73297;BME280;61524;50.938;11.396;2022-11-15T05:11:49;98666.63;;;6.56;93.68
73297;BME280;61524;50.938;11.396;2022-11-15T05:14:14;98668.59;;;6.61;93.56
73297;BME280;61524;50.938;11.396;2022-11-15T05:16:41;98659.47;;;6.45;93.92
73297;BME280;61524;50.938;11.396;2022-11-15T05:19:07;98672.59;;;6.40;94.35
73297;BME280;61524;50.938;11.396;2022-11-15T05:21:33;98672.72;;;6.45;94.65
73297;BME280;61524;50.938;11.396;2022-11-15T05:23:59;98680.47;;;6.46;94.27
73297;BME280;61524;50.938;11.396;2022-11-15T05:26:25;98669.75;;;6.41;94.43
73297;BME280;61524;50.938;11.396;2022-11-15T05:28:55;98667.78;;;6.37;94.51
73297;BME280;61524;50.938;11.396;2022-11-15T05:31:21;98670.78;;;6.52;94.62
73297;BME280;61524;50.938;11.396;2022-11-15T05:33:48;98674.94;;;6.48;94.60
73297;BME280;61524;50.938;11.396;2022-11-15T05:38:48;98676.41;;;6.32;94.87
73297;BME280;61524;50.938;11.396;2022-11-15T05:41:14;98687.47;;;6.29;94.95
73297;BME280;61524;50.938;11.396;2022-11-15T05:43:40;98693.53;;;6.18;94.80
73297;BME280;61524;50.938;11.396;2022-11-15T05:46:07;98685.19;;;6.02;96.13
73297;BME280;61524;50.938;11.396;2022-11-15T05:48:37;98690.28;;;5.86;96.17
73297;BME280;61524;50.938;11.396;2022-11-15T05:51:04;98679.88;;;5.54;96.01
73297;BME280;61524;50.938;11.396;2022-11-15T05:53:31;98678.44;;;5.40;96.88
73297;BME280;61524;50.938;11.396;2022-11-15T05:55:57;98669.91;;;5.19;97.97
73297;BME280;61524;50.938;11.396;2022-11-15T05:58:22;98675.78;;;5.03;98.61
73297;BME280;61524;50.938;11.396;2022-11-15T06:00:48;98679.00;;;4.87;99.61
73297;BME280;61524;50.938;11.396;2022-11-15T06:03:13;98681.78;;;4.73;98.98
73297;BME280;61524;50.938;11.396;2022-11-15T06:05:39;98666.34;;;4.45;98.40
73297;BME280;61524;50.938;11.396;2022-11-15T06:08:05;98676.22;;;4.32;99.97
73297;BME280;61524;50.938;11.396;2022-11-15T06:10:30;98682.75;;;4.29;100.00
73297;BME280;61524;50.938;11.396;2022-11-15T06:12:57;98674.06;;;4.22;100.00
73297;BME280;61524;50.938;11.396;2022-11-15T06:15:23;98685.28;;;4.17;100.00
73297;BME280;61524;50.938;11.396;2022-11-15T06:17:48;98675.59;;;4.05;100.00
73297;BME280;61524;50.938;11.396;2022-11-15T06:20:14;98677.69;;;3.96;100.00
73297;BME280;61524;50.938;11.396;2022-11-15T06:22:40;98681.63;;;3.80;100.00
73297;BME280;61524;50.938;11.396;2022-11-15T06:25:05;98676.81;;;3.71;100.00
73297;BME280;61524;50.938;11.396;2022-11-15T06:27:31;98681.94;;;3.59;100.00
73297;BME280;61524;50.938;11.396;2022-11-15T06:29:56;98664.97;;;3.41;100.00
73297;BME280;61524;50.938;11.396;2022-11-15T06:32:22;98683.78;;;3.58;100.00
73297;BME280;61524;50.938;11.396;2022-11-15T06:34:47;98686.63;;;3.57;100.00
73297;BME280;61524;50.938;11.396;2022-11-15T06:37:13;98692.06;;;3.68;100.00
73297;BME280;61524;50.938;11.396;2022-11-15T06:39:38;98687.19;;;3.72;100.00
73297;BME280;61524;50.938;11.396;2022-11-15T06:42:03;98692.81;;;3.82;100.00
73297;BME280;61524;50.938;11.396;2022-11-15T06:44:29;98693.63;;;3.83;100.00
73297;BME280;61524;50.938;11.396;2022-11-15T06:46:54;98711.91;;;3.84;100.00
73297;BME280;61524;50.938;11.396;2022-11-15T06:49:20;98707.03;;;3.81;100.00
73297;BME280;61524;50.938;11.396;2022-11-15T06:51:45;98708.50;;;3.71;100.00
73297;BME280;61524;50.938;11.396;2022-11-15T06:54:10;98697.97;;;3.64;100.00
73297;BME280;61524;50.938;11.396;2022-11-15T06:56:36;98714.03;;;3.62;100.00
73297;BME280;61524;50.938;11.396;2022-11-15T06:59:01;98705.09;;;3.63;100.00
73297;BME280;61524;50.938;11.396;2022-11-15T07:01:27;98708.09;;;3.74;100.00
73297;BME280;61524;50.938;11.396;2022-11-15T07:03:52;98704.66;;;3.73;100.00
73297;BME280;61524;50.938;11.396;2022-11-15T07:06:18;98710.34;;;3.77;100.00
73297;BME280;61524;50.938;11.396;2022-11-15T07:08:43;98720.41;;;3.86;100.00
73297;BME280;61524;50.938;11.396;2022-11-15T07:11:09;98714.28;;;3.99;100.00
73297;BME280;61524;50.938;11.396;2022-11-15T07:13:35;98724.72;;;4.19;100.00
73297;BME280;61524;50.938;11.396;2022-11-15T07:16:05;98722.63;;;4.28;100.00
73297;BME280;61524;50.938;11.396;2022-11-15T07:18:37;98714.47;;;4.29;100.00
73297;BME280;61524;50.938;11.396;2022-11-15T07:21:08;98724.63;;;4.32;100.00
73297;BME280;61524;50.938;11.396;2022-11-15T07:23:36;98721.78;;;4.34;100.00
73297;BME280;61524;50.938;11.396;2022-11-15T07:26:03;98716.94;;;4.31;100.00
73297;BME280;61524;50.938;11.396;2022-11-15T07:28:29;98706.00;;;4.45;100.00
73297;BME280;61524;50.938;11.396;2022-11-15T07:30:54;98710.28;;;4.46;100.00
73297;BME280;61524;50.938;11.396;2022-11-15T07:33:20;98713.41;;;4.62;100.00
73297;BME280;61524;50.938;11.396;2022-11-15T07:35:46;98718.50;;;4.63;100.00
73297;BME280;61524;50.938;11.396;2022-11-15T07:38:15;98725.41;;;4.64;100.00
73297;BME280;61524;50.938;11.396;2022-11-15T07:40:41;98716.44;;;4.65;100.00
73297;BME280;61524;50.938;11.396;2022-11-15T07:43:07;98732.72;;;4.69;100.00
73297;BME280;61524;50.938;11.396;2022-11-15T07:45:33;98713.75;;;4.72;100.00
73297;BME280;61524;50.938;11.396;2022-11-15T07:48:00;98720.47;;;4.74;100.00
73297;BME280;61524;50.938;11.396;2022-11-15T07:50:26;98713.81;;;4.90;100.00
73297;BME280;61524;50.938;11.396;2022-11-15T07:52:59;98722.25;;;4.99;100.00
73297;BME280;61524;50.938;11.396;2022-11-15T07:55:26;98721.38;;;5.05;100.00
73297;BME280;61524;50.938;11.396;2022-11-15T07:57:53;98725.59;;;5.13;100.00
73297;BME280;61524;50.938;11.396;2022-11-15T08:00:24;98717.81;;;5.18;100.00
73297;BME280;61524;50.938;11.396;2022-11-15T08:02:50;98706.91;;;5.26;99.84
73297;BME280;61524;50.938;11.396;2022-11-15T08:05:15;98718.41;;;5.38;100.00
73297;BME280;61524;50.938;11.396;2022-11-15T08:07:41;98710.88;;;5.53;99.45
73297;BME280;61524;50.938;11.396;2022-11-15T08:10:07;98703.22;;;5.64;99.90
73297;BME280;61524;50.938;11.396;2022-11-15T08:12:33;98704.09;;;5.76;99.93
73297;BME280;61524;50.938;11.396;2022-11-15T08:14:59;98706.00;;;5.87;98.81
73297;BME280;61524;50.938;11.396;2022-11-15T08:17:24;98708.59;;;5.94;99.14
73297;BME280;61524;50.938;11.396;2022-11-15T08:19:50;98705.84;;;6.00;98.21
73297;BME280;61524;50.938;11.396;2022-11-15T08:22:16;98699.44;;;6.08;97.94
73297;BME280;61524;50.938;11.396;2022-11-15T08:24:41;98705.19;;;6.17;97.79
73297;BME280;61524;50.938;11.396;2022-11-15T08:27:07;98702.56;;;6.28;97.47
73297;BME280;61524;50.938;11.396;2022-11-15T08:29:40;98695.47;;;6.41;97.40
73297;BME280;61524;50.938;11.396;2022-11-15T08:32:06;98698.13;;;6.52;97.66
73297;BME280;61524;50.938;11.396;2022-11-15T08:34:32;98700.44;;;6.61;97.16
73297;BME280;61524;50.938;11.396;2022-11-15T08:36:58;98692.97;;;6.81;96.86
73297;BME280;61524;50.938;11.396;2022-11-15T08:39:23;98689.50;;;6.92;97.03
73297;BME280;61524;50.938;11.396;2022-11-15T08:41:48;98682.44;;;7.09;96.56
73297;BME280;61524;50.938;11.396;2022-11-15T08:44:14;98678.94;;;7.21;95.93
73297;BME280;61524;50.938;11.396;2022-11-15T08:46:39;98659.56;;;7.32;96.03
73297;BME280;61524;50.938;11.396;2022-11-15T08:49:05;98678.56;;;7.41;95.18
73297;BME280;61524;50.938;11.396;2022-11-15T08:51:30;98665.75;;;7.49;94.10
73297;BME280;61524;50.938;11.396;2022-11-15T08:53:56;98664.50;;;7.69;93.27
73297;BME280;61524;50.938;11.396;2022-11-15T08:56:21;98664.56;;;7.85;92.71
73297;BME280;61524;50.938;11.396;2022-11-15T08:58:46;98663.47;;;7.98;92.26
73297;BME280;61524;50.938;11.396;2022-11-15T09:01:18;98661.97;;;8.02;92.62
73297;BME280;61524;50.938;11.396;2022-11-15T09:03:44;98663.75;;;8.13;92.09
73297;BME280;61524;50.938;11.396;2022-11-15T09:06:09;98658.06;;;8.38;89.76
73297;BME280;61524;50.938;11.396;2022-11-15T09:08:35;98652.31;;;8.80;87.69
73297;BME280;61524;50.938;11.396;2022-11-15T09:11:08;98657.50;;;9.09;84.60
73297;BME280;61524;50.938;11.396;2022-11-15T09:13:34;98659.38;;;9.30;83.73
73297;BME280;61524;50.938;11.396;2022-11-15T09:16:00;98658.81;;;9.50;84.19
73297;BME280;61524;50.938;11.396;2022-11-15T09:18:26;98660.19;;;9.75;82.28
73297;BME280;61524;50.938;11.396;2022-11-15T09:20:58;98666.38;;;9.80;81.80
73297;BME280;61524;50.938;11.396;2022-11-15T09:23:24;98656.03;;;9.89;81.57
73297;BME280;61524;50.938;11.396;2022-11-15T09:25:51;98649.19;;;9.98;80.43
73297;BME280;61524;50.938;11.396;2022-11-15T09:28:16;98647.78;;;10.17;80.99
73297;BME280;61524;50.938;11.396;2022-11-15T09:30:42;98653.31;;;10.38;78.03
73297;BME280;61524;50.938;11.396;2022-11-15T09:33:11;98654.94;;;10.39;78.55
73297;BME280;61524;50.938;11.396;2022-11-15T09:35:38;98650.31;;;10.61;77.18
73297;BME280;61524;50.938;11.396;2022-11-15T09:38:03;98654.59;;;10.62;78.55
73297;BME280;61524;50.938;11.396;2022-11-15T09:40:31;98648.75;;;10.70;77.22
73297;BME280;61524;50.938;11.396;2022-11-15T09:45:34;98651.56;;;10.91;77.14
73297;BME280;61524;50.938;11.396;2022-11-15T09:48:20;98649.00;;;11.11;76.46
73297;BME280;61524;50.938;11.396;2022-11-15T09:50:51;98651.44;;;11.18;75.44
73297;BME280;61524;50.938;11.396;2022-11-15T09:53:29;98644.19;;;11.13;75.98
73297;BME280;61524;50.938;11.396;2022-11-15T09:56:04;98642.66;;;11.22;76.09
73297;BME280;61524;50.938;11.396;2022-11-15T09:59:12;98629.31;;;11.33;75.29
73297;BME280;61524;50.938;11.396;2022-11-15T10:02:03;98623.22;;;11.42;75.99
73297;BME280;61524;50.938;11.396;2022-11-15T10:04:35;98630.44;;;11.42;75.52
73297;BME280;61524;50.938;11.396;2022-11-15T10:07:34;98624.56;;;11.45;76.27
73297;BME280;61524;50.938;11.396;2022-11-15T10:10:12;98622.19;;;11.53;74.08
73297;BME280;61524;50.938;11.396;2022-11-15T10:12:44;98617.66;;;11.64;72.61
73297;BME280;61524;50.938;11.396;2022-11-15T10:15:15;98621.94;;;11.60;73.06
73297;BME280;61524;50.938;11.396;2022-11-15T10:18:00;98614.97;;;11.59;73.69
73297;BME280;61524;50.938;11.396;2022-11-15T10:20:39;98604.53;;;11.57;75.16
73297;BME280;61524;50.938;11.396;2022-11-15T10:23:11;98604.78;;;11.56;72.48
73297;BME280;61524;50.938;11.396;2022-11-15T10:25:38;98600.53;;;11.60;73.00
73297;BME280;61524;50.938;11.396;2022-11-15T10:28:17;98600.53;;;11.60;71.92
73297;BME280;61524;50.938;11.396;2022-11-15T10:30:49;98581.25;;;11.53;72.69
73297;BME280;61524;50.938;11.396;2022-11-15T10:33:36;98586.06;;;11.56;72.24
73297;BME280;61524;50.938;11.396;2022-11-15T10:41:21;98567.28;;;11.41;73.64
73297;BME280;61524;50.938;11.396;2022-11-15T10:46:32;98568.38;;;11.50;72.83
73297;BME280;61524;50.938;11.396;2022-11-15T10:49:17;98563.03;;;11.50;71.75
73297;BME280;61524;50.938;11.396;2022-11-15T10:51:44;98554.53;;;11.63;71.30
73297;BME280;61524;50.938;11.396;2022-11-15T10:54:12;98545.69;;;11.57;73.06
73297;BME280;61524;50.938;11.396;2022-11-15T10:56:40;98552.38;;;11.65;71.96
73297;BME280;61524;50.938;11.396;2022-11-15T10:59:16;98550.22;;;11.67;72.72
73297;BME280;61524;50.938;11.396;2022-11-15T11:01:47;98549.19;;;11.78;71.73
73297;BME280;61524;50.938;11.396;2022-11-15T11:04:13;98559.38;;;11.92;70.86
73297;BME280;61524;50.938;11.396;2022-11-15T11:09:32;98551.38;;;12.32;69.82
73297;BME280;61524;50.938;11.396;2022-11-15T11:11:57;98553.47;;;12.46;69.37
73297;BME280;61524;50.938;11.396;2022-11-15T11:14:25;98550.50;;;12.57;69.73
73297;BME280;61524;50.938;11.396;2022-11-15T11:22:39;98543.44;;;12.97;69.30
73297;BME280;61524;50.938;11.396;2022-11-15T11:30:12;98529.66;;;13.14;68.00
73297;BME280;61524;50.938;11.396;2022-11-15T11:33:03;98520.50;;;13.20;67.93
73297;BME280;61524;50.938;11.396;2022-11-15T11:35:44;98514.06;;;13.26;68.08
73297;BME280;61524;50.938;11.396;2022-11-15T11:38:38;98516.75;;;13.26;68.66
73297;BME280;61524;50.938;11.396;2022-11-15T11:41:36;98516.41;;;13.38;68.15
73297;BME280;61524;50.938;11.396;2022-11-15T11:47:14;98507.97;;;13.55;67.83
73297;BME280;61524;50.938;11.396;2022-11-15T11:49:45;98502.44;;;13.46;68.60
73297;BME280;61524;50.938;11.396;2022-11-15T11:52:34;98493.44;;;13.61;67.96
73297;BME280;61524;50.938;11.396;2022-11-15T11:55:23;98497.91;;;13.76;68.56
73297;BME280;61524;50.938;11.396;2022-11-15T11:58:27;98496.03;;;13.76;68.12
73297;BME280;61524;50.938;11.396;2022-11-15T12:06:33;98478.63;;;13.69;66.75
73297;BME280;61524;50.938;11.396;2022-11-15T12:09:12;98476.50;;;13.65;66.74
73297;BME280;61524;50.938;11.396;2022-11-15T12:15:33;98476.00;;;13.92;66.09
73297;BME280;61524;50.938;11.396;2022-11-15T12:17:33;98476.63;;;13.84;67.27
73297;BME280;61524;50.938;11.396;2022-11-15T12:20:02;98467.19;;;13.87;66.49
73297;BME280;61524;50.938;11.396;2022-11-15T12:22:37;98470.75;;;13.77;66.58
73297;BME280;61524;50.938;11.396;2022-11-15T12:25:27;98468.91;;;13.78;67.08
73297;BME280;61524;50.938;11.396;2022-11-15T12:28:03;98469.66;;;13.83;66.70
73297;BME280;61524;50.938;11.396;2022-11-15T12:33:44;98460.44;;;13.95;65.60
73297;BME280;61524;50.938;11.396;2022-11-15T12:38:54;98455.53;;;14.02;65.23
73297;BME280;61524;50.938;11.396;2022-11-15T12:41:22;98450.34;;;14.10;65.19
73297;BME280;61524;50.938;11.396;2022-11-15T12:43:49;98449.81;;;14.08;63.96
73297;BME280;61524;50.938;11.396;2022-11-15T12:49:00;98460.81;;;14.12;65.11
73297;BME280;61524;50.938;11.396;2022-11-15T13:02:35;98439.06;;;14.08;63.34
73297;BME280;61524;50.938;11.396;2022-11-15T13:05:51;98438.16;;;14.18;62.74
73297;BME280;61524;50.938;11.396;2022-11-15T13:08:36;98430.44;;;14.11;62.47
73297;BME280;61524;50.938;11.396;2022-11-15T13:17:27;98420.75;;;13.86;65.36
73297;BME280;61524;50.938;11.396;2022-11-15T13:19:55;98418.00;;;13.91;65.28
73297;BME280;61524;50.938;11.396;2022-11-15T13:22:24;98414.53;;;13.91;64.85
73297;BME280;61524;50.938;11.396;2022-11-15T13:27:57;98406.28;;;13.82;65.09
73297;BME280;61524;50.938;11.396;2022-11-15T13:30:30;98409.88;;;13.73;65.23
73297;BME280;61524;50.938;11.396;2022-11-15T13:33:00;98402.63;;;13.73;64.36
73297;BME280;61524;50.938;11.396;2022-11-15T13:35:28;98408.25;;;13.72;64.46
73297;BME280;61524;50.938;11.396;2022-11-15T13:37:56;98403.72;;;13.72;66.15
73297;BME280;61524;50.938;11.396;2022-11-15T13:40:26;98401.19;;;13.81;63.75
73297;BME280;61524;50.938;11.396;2022-11-15T13:42:57;98392.34;;;13.80;65.50
73297;BME280;61524;50.938;11.396;2022-11-15T13:45:24;98385.13;;;13.76;65.51
73297;BME280;61524;50.938;11.396;2022-11-15T13:47:57;98382.78;;;13.69;65.90
73297;BME280;61524;50.938;11.396;2022-11-15T13:50:32;98384.06;;;13.77;65.38
73297;BME280;61524;50.938;11.396;2022-11-15T13:53:01;98385.44;;;13.74;66.94
73297;BME280;61524;50.938;11.396;2022-11-15T13:55:29;98386.56;;;13.68;65.64
73297;BME280;61524;50.938;11.396;2022-11-15T13:58:02;98374.44;;;13.71;66.14
73297;BME280;61524;50.938;11.396;2022-11-15T14:00:38;98370.22;;;13.64;67.29
73297;BME280;61524;50.938;11.396;2022-11-15T14:05:32;98366.28;;;13.57;66.47
73297;BME280;61524;50.938;11.396;2022-11-15T14:08:03;98362.16;;;13.64;64.91
73297;BME280;61524;50.938;11.396;2022-11-15T14:10:34;98366.78;;;13.59;66.35
73297;BME280;61524;50.938;11.396;2022-11-15T14:13:02;98356.59;;;13.56;65.05
73297;BME280;61524;50.938;11.396;2022-11-15T14:15:38;98350.06;;;13.38;66.64
73297;BME280;61524;50.938;11.396;2022-11-15T14:18:04;98354.94;;;13.31;66.22
73297;BME280;61524;50.938;11.396;2022-11-15T14:22:58;98353.78;;;13.08;67.57
73297;BME280;61524;50.938;11.396;2022-11-15T14:25:30;98349.78;;;13.00;66.03
73297;BME280;61524;50.938;11.396;2022-11-15T14:30:41;98335.81;;;12.64;66.62
73297;BME280;61524;50.938;11.396;2022-11-15T14:33:33;98334.06;;;12.44;68.23
73297;BME280;61524;50.938;11.396;2022-11-15T14:38:35;98329.94;;;12.07;69.33
73297;BME280;61524;50.938;11.396;2022-11-15T14:41:01;98335.03;;;11.99;69.63
73297;BME280;61524;50.938;11.396;2022-11-15T14:43:26;98337.72;;;11.99;70.37
73297;BME280;61524;50.938;11.396;2022-11-15T14:45:52;98326.00;;;11.85;70.54
73297;BME280;61524;50.938;11.396;2022-11-15T14:48:17;98323.03;;;11.86;70.62
73297;BME280;61524;50.938;11.396;2022-11-15T14:50:43;98328.09;;;11.77;72.25
73297;BME280;61524;50.938;11.396;2022-11-15T14:53:15;98327.59;;;11.70;72.56